Europa — C6QK8 — position and weather

sailwx.info

Track history (hours):
 
Tides and Currents Weather Stations Pressure Air Temp Water Temp Dewpoint Dewpoint Depression Visibility Wind Speed Wind Dir Waves Ship Positions

Europa

Operator: Hapag-Lloyd Container Line

Last reported at 2017-Jun-23 00:40 UTC. Time now 2017-Jun-25 08:38 UTC.
Position N 09°38' W 079°45'.

Length 199 m; draft 6.3 m.

Type: Passenger vessel. MMSI: 308007000.

Date/timePositionNaut miles runAvg speedWind from/ knotsBaromVisibWave heightAir tempDewpointWater temp
2017-Jun-23 00:40N 09°38' W 079°45'1 4.9
2017-Jun-23 00:28N 09°37' W 079°46'2 4.6
2017-Jun-23 00:00N 09°35' W 079°47'2 4.6
2017-Jun-22 23:30N 09°33' W 079°49'2 4.9
2017-Jun-22 23:00N 09°31' W 079°50'3 5.6
2017-Jun-22 22:30N 09°29' W 079°52'3 5.6
2017-Jun-22 22:00N 09°27' W 079°54'5 9.3
2017-Jun-22 21:30N 09°23' W 079°55'5 9.6
2017-Jun-22 21:00N 09°18' W 079°55'1 2.2
2017-Jun-22 20:30N 09°17' W 079°55'0 0.4
2017-Jun-22 20:00N 09°16' W 079°55'0 0.5
2017-Jun-22 19:30N 09°16' W 079°55'1 1.5
2017-Jun-22 19:00N 09°15' W 079°55'1 1.4
2017-Jun-22 18:30N 09°15' W 079°55'2 3.9
2017-Jun-22 18:00N 09°13' W 079°55'3 5.4
2017-Jun-22 17:27N 09°11' W 079°53'  
Track history (hours):
 
Tides and Currents Weather Stations Pressure Air Temp Water Temp Dewpoint Dewpoint Depression Visibility Wind Speed Wind Dir Waves Ship Positions

Europa

Operator: Hapag-Lloyd Container Line

Last reported at 2017-Jun-23 00:40 UTC. Time now 2017-Jun-25 08:38 UTC.
Position N 09°38' W 079°45'.

Length 199 m; draft 6.3 m.

Type: Passenger vessel. MMSI: 308007000.

Date/timePositionNaut miles runAvg speedWind from/ knotsBaromVisibWave heightAir tempDewpointWater temp
2017-Jun-23 00:40N 09°38' W 079°45'1 4.9
2017-Jun-23 00:28N 09°37' W 079°46'2 4.6
2017-Jun-23 00:00N 09°35' W 079°47'2 4.6
2017-Jun-22 23:30N 09°33' W 079°49'2 4.9
2017-Jun-22 23:00N 09°31' W 079°50'3 5.6
2017-Jun-22 22:30N 09°29' W 079°52'3 5.6
2017-Jun-22 22:00N 09°27' W 079°54'5 9.3
2017-Jun-22 21:30N 09°23' W 079°55'5 9.6
2017-Jun-22 21:00N 09°18' W 079°55'1 2.2
2017-Jun-22 20:30N 09°17' W 079°55'0 0.4
2017-Jun-22 20:00N 09°16' W 079°55'0 0.5
2017-Jun-22 19:30N 09°16' W 079°55'1 1.5
2017-Jun-22 19:00N 09°15' W 079°55'1 1.4
2017-Jun-22 18:30N 09°15' W 079°55'2 3.9
2017-Jun-22 18:00N 09°13' W 079°55'3 5.4
2017-Jun-22 17:27N 09°11' W 079°53'  

Dump ship's entire track history